CheckWX is a tool to help pilots better visualize weather data.  It is not intended as a substitute for an official pre-flight weather briefing.

01:36:40 UTC

KGFL METAR
Floyd Bennett Memorial Airport
Glens Falls, New York, USA
Current

44 mins ago

KGFL 240053Z AUTO 00000KT 10SM CLR M04/M08 A3029 RMK AO2 SLP268 T10391083
Observed
Feb-24 @ 00:53 UTC
Visibility
10 SM
Flight Rules
VFR
Cloud Levels
  • Clear skies
Temperature
-4°C / 25°F
Dewpoint
-8°C / 18°F
Humidity
74%
Altimeter
30.29" Hg
Pressure
1026.8 hPa
Previous

2 hours ago

KGFL 232353Z AUTO 00000KT 10SM CLR M04/M09 A3030 RMK AO2 SLP274 T10441089 10017 21044 55017
Observed
Feb-23 @ 23:53 UTC
Visibility
10 SM
Flight Rules
VFR
Cloud Levels
  • Clear skies
Temperature
-4°C / 25°F
Dewpoint
-9°C / 16°F
Humidity
69%
Altimeter
30.3" Hg
Pressure
1027.4 hPa
Previous

3 hours ago

KGFL 232253Z AUTO 00000KT 10SM CLR M02/M08 A3030 RMK AO2 SLP272 T10171083
Observed
Feb-23 @ 22:53 UTC
Visibility
10 SM
Flight Rules
VFR
Cloud Levels
  • Clear skies
Temperature
-2°C / 28°F
Dewpoint
-8°C / 18°F
Humidity
64%
Altimeter
30.3" Hg
Pressure
1027.2 hPa